Terminal Aerodrome Forecast
Issued by NWS

Home | Current Version | Previous Version | Text Only | Print | Product List | Glossary On
Versions: 1 2 3 4 5 6 7 8 9 10 11 12 13 14 15 16
228
FTUS44 KLZK 261315 AAA
TAFHRO
TAF AMD
KHRO 261315Z 2613/2712 14003KT 2SM BR OVC002
     FM261500 VRB05KT 6SM BR SCT005 OVC100
     FM261700 11005KT P6SM VCTS SCT050CB BKN250
     FM270100 11005KT P6SM FEW030 SCT100 BKN250=

USA.gov is the U.S. government's official web portal to all federal, state and local government web resources and services.